Time;durP1;ratioP1;P1;durP2;ratioP2;P2;SDS_P1;SDS_P2;PMS_P1;PMS_P2;Temp;Humidity;BMP_temperature;BMP_pressure;BME280_temperature;BME280_humidity;BME280_pressure;Samples;Min_cycle;Max_cycle;Signal;HPM_P1;HPM_P2
2022/01/30 00:00:00;;;;;;;18.85;4.70;;;5.10;99.90;;;;;;5052177;28;20450;-70
2022/01/30 00:02:28;;;;;;;27.10;5.90;;;5.10;99.90;;;;;;5051906;28;20107;-70
2022/01/30 00:04:55;;;;;;;20.33;4.93;;;5.20;99.90;;;;;;5051855;28;20428;-70
2022/01/30 00:07:21;;;;;;;20.52;4.85;;;5.30;99.90;;;;;;5051944;28;20053;-71
2022/01/30 00:09:50;;;;;;;20.30;5.50;;;5.40;99.90;;;;;;5052066;28;20106;-71
2022/01/30 00:12:24;;;;;;;20.67;4.63;;;5.40;99.90;;;;;;5051432;28;20081;-70
2022/01/30 00:14:54;;;;;;;21.80;5.13;;;5.50;99.90;;;;;;5052325;28;20049;-70
2022/01/30 00:17:25;;;;;;;29.65;5.40;;;5.60;99.90;;;;;;5051665;28;20063;-70
2022/01/30 00:19:58;;;;;;;27.33;6.80;;;5.80;99.90;;;;;;5051545;28;20420;-70
2022/01/30 00:22:38;;;;;;;24.20;6.22;;;5.60;99.90;;;;;;5051104;28;20520;-71
2022/01/30 00:25:14;;;;;;;26.58;5.35;;;5.60;99.90;;;;;;5050998;28;20484;-71
2022/01/30 00:27:46;;;;;;;22.77;5.72;;;5.60;99.90;;;;;;5051997;28;20056;-71
2022/01/30 00:30:15;;;;;;;20.45;5.95;;;5.50;99.90;;;;;;5052265;28;20056;-69
2022/01/30 00:32:42;;;;;;;21.40;5.00;;;5.50;99.90;;;;;;5051152;28;20136;-69
2022/01/30 00:35:10;;;;;;;14.85;3.95;;;5.60;99.90;;;;;;5052109;28;20056;-70
2022/01/30 00:37:41;;;;;;;13.02;3.47;;;5.40;99.90;;;;;;5051173;28;20052;-70
2022/01/30 00:40:10;;;;;;;12.20;3.15;;;5.30;99.90;;;;;;5051585;28;20053;-70
2022/01/30 00:42:37;;;;;;;13.23;3.00;;;5.20;99.90;;;;;;5051524;28;20539;-69
2022/01/30 00:45:05;;;;;;;14.57;3.47;;;5.00;99.90;;;;;;5051910;28;20060;-70
2022/01/30 00:47:32;;;;;;;18.50;3.85;;;4.90;99.90;;;;;;5051055;28;20559;-70
2022/01/30 00:49:59;;;;;;;18.83;4.82;;;4.90;99.90;;;;;;5051589;28;20052;-70
2022/01/30 00:52:26;;;;;;;28.08;5.97;;;4.90;99.90;;;;;;5052746;28;20057;-69
2022/01/30 00:54:52;;;;;;;25.65;5.13;;;5.00;99.90;;;;;;5051299;28;20447;-70
2022/01/30 00:57:21;;;;;;;22.92;5.20;;;5.00;99.90;;;;;;5051449;28;20057;-69
2022/01/30 00:59:48;;;;;;;26.23;5.95;;;5.00;99.90;;;;;;5052597;28;20049;-70
2022/01/30 01:02:16;;;;;;;22.67;6.43;;;5.00;99.90;;;;;;5050865;28;20501;-70
2022/01/30 01:04:42;;;;;;;24.60;5.97;;;4.90;99.90;;;;;;5051593;28;20048;-70
2022/01/30 01:07:15;;;;;;;21.35;5.05;;;4.90;99.90;;;;;;5050673;28;20562;-70
2022/01/30 01:09:48;;;;;;;19.38;5.22;;;4.90;99.90;;;;;;5051908;28;20056;-70
2022/01/30 01:23:28;;;;;;;36.47;6.22;;;4.80;99.90;;;;;;5067825;28;20122;-70
2022/01/30 01:25:56;;;;;;;26.92;6.45;;;4.90;99.90;;;;;;5051454;28;20543;-69
2022/01/30 01:28:23;;;;;;;21.30;7.28;;;5.00;99.90;;;;;;5050353;28;20061;-69
2022/01/30 01:30:51;;;;;;;22.80;6.93;;;5.10;99.90;;;;;;5050996;28;20099;-70
2022/01/30 01:33:19;;;;;;;21.08;6.78;;;5.20;99.90;;;;;;5048968;28;20050;-70
2022/01/30 01:35:46;;;;;;;22.58;5.40;;;5.30;99.90;;;;;;5051160;28;20065;-70
2022/01/30 01:38:15;;;;;;;35.40;7.15;;;5.30;99.90;;;;;;5041598;28;20103;-70
2022/01/30 01:40:50;;;;;;;27.27;6.93;;;5.30;99.90;;;;;;5054998;28;20053;-70
2022/01/30 01:43:17;;;;;;;16.88;5.03;;;5.20;99.90;;;;;;5054054;28;20060;-70
2022/01/30 01:45:46;;;;;;;27.05;6.13;;;5.30;99.90;;;;;;5055086;28;20059;-70
2022/01/30 01:48:15;;;;;;;21.75;5.25;;;5.30;99.90;;;;;;5054512;28;20127;-70
2022/01/30 01:50:46;;;;;;;21.00;6.15;;;5.20;99.90;;;;;;5053919;28;20136;-70
2022/01/30 01:53:15;;;;;;;20.40;4.65;;;5.20;99.90;;;;;;5054850;28;20056;-70
2022/01/30 01:55:43;;;;;;;16.45;4.65;;;5.00;99.90;;;;;;5054650;28;20049;-69
2022/01/30 01:58:10;;;;;;;26.10;5.00;;;5.60;99.90;;;;;;5053483;28;20041;-70
2022/01/30 02:00:38;;;;;;;23.17;6.15;;;4.90;99.90;;;;;;5055107;28;20448;-69
2022/01/30 02:03:06;;;;;;;23.95;5.68;;;4.90;99.90;;;;;;5054562;28;20126;-69
2022/01/30 02:05:36;;;;;;;20.50;5.60;;;5.00;99.90;;;;;;5053949;28;20087;-69
2022/01/30 02:08:27;;;;;;;31.03;6.23;;;5.00;99.90;;;;;;5054492;28;20060;-69
2022/01/30 02:10:59;;;;;;;32.95;6.05;;;5.10;99.90;;;;;;5070658;28;20409;-69
2022/01/30 02:24:41;;;;;;;25.98;6.38;;;5.30;99.90;;;;;;5053841;28;20218;-70
2022/01/30 02:27:12;;;;;;;18.20;4.82;;;5.30;99.90;;;;;;5053907;28;20132;-71
2022/01/30 02:29:39;;;;;;;28.00;5.45;;;5.30;99.90;;;;;;5054446;28;20432;-70
2022/01/30 02:32:07;;;;;;;31.67;6.40;;;5.20;99.90;;;;;;5053644;28;20103;-70
2022/01/30 02:34:34;;;;;;;21.67;5.82;;;5.20;99.90;;;;;;5054182;28;20167;-70
2022/01/30 02:37:01;;;;;;;32.58;7.85;;;5.20;99.90;;;;;;5053667;28;20056;-70
2022/01/30 02:39:30;;;;;;;25.08;5.80;;;5.10;99.90;;;;;;5054646;28;20049;-68
2022/01/30 02:41:58;;;;;;;31.23;7.10;;;5.20;99.90;;;;;;5053449;28;20095;-70
2022/01/30 02:44:30;;;;;;;37.00;7.50;;;5.20;99.90;;;;;;5054434;28;20091;-69
2022/01/30 02:47:02;;;;;;;28.77;6.93;;;5.20;99.90;;;;;;5052953;28;20059;-70
2022/01/30 02:49:42;;;;;;;24.58;6.15;;;5.10;99.90;;;;;;5053849;28;20140;-70
2022/01/30 02:52:10;;;;;;;37.03;9.50;;;5.10;99.90;;;;;;5054007;28;20114;-70
2022/01/30 02:54:38;;;;;;;35.75;7.53;;;5.10;99.90;;;;;;5053134;28;20061;-70
2022/01/30 02:57:07;;;;;;;34.80;7.65;;;5.00;99.90;;;;;;5054150;28;20178;-69
2022/01/30 02:59:33;;;;;;;29.83;7.60;;;5.00;99.90;;;;;;5052530;28;20115;-69
2022/01/30 03:02:02;;;;;;;26.05;5.82;;;5.00;99.90;;;;;;5054586;28;20049;-70
2022/01/30 03:04:28;;;;;;;46.05;7.45;;;5.00;99.90;;;;;;5053443;28;20049;-69
2022/01/30 03:06:55;;;;;;;42.17;7.97;;;5.00;99.90;;;;;;5052826;28;20049;-69
2022/01/30 03:09:22;;;;;;;31.15;7.28;;;5.00;99.90;;;;;;5052990;28;20095;-69
2022/01/30 03:11:49;;;;;;;32.80;8.13;;;5.00;99.90;;;;;;5053540;28;20481;-69
2022/01/30 03:14:18;;;;;;;27.48;6.75;;;5.10;99.90;;;;;;5052186;28;20052;-69
2022/01/30 03:16:44;;;;;;;34.05;9.32;;;5.30;99.90;;;;;;5053303;28;20103;-70
2022/01/30 03:19:11;;;;;;;36.40;6.55;;;5.30;99.90;;;;;;5052635;28;20501;-69
2022/01/30 03:21:38;;;;;;;38.38;8.07;;;5.40;99.90;;;;;;5052616;28;20405;-70
2022/01/30 03:24:06;;;;;;;37.55;8.15;;;5.40;99.90;;;;;;5052553;28;20049;-70
2022/01/30 03:26:38;;;;;;;39.40;7.30;;;5.40;99.90;;;;;;5053112;28;20110;-69
2022/01/30 03:29:06;;;;;;;38.70;8.70;;;5.40;99.90;;;;;;5052319;28;20413;-68
2022/01/30 03:31:36;;;;;;;22.25;6.28;;;5.50;99.90;;;;;;5069411;28;20099;-68
2022/01/30 03:34:03;;;;;;;28.98;7.22;;;5.60;99.90;;;;;;5052922;28;20088;-68
2022/01/30 03:36:30;;;;;;;38.90;7.00;;;5.50;99.90;;;;;;5052052;28;20114;-69
2022/01/30 03:38:58;;;;;;;38.90;6.93;;;5.60;99.90;;;;;;5051854;28;20045;-69
2022/01/30 03:41:25;;;;;;;36.75;8.63;;;5.60;99.90;;;;;;5052727;28;20500;-69
2022/01/30 03:43:52;;;;;;;31.65;6.88;;;5.60;99.90;;;;;;5052141;28;20049;-70
2022/01/30 03:46:20;;;;;;;45.95;7.25;;;5.70;99.90;;;;;;5052761;28;20562;-70
2022/01/30 03:48:49;;;;;;;31.88;8.52;;;5.60;99.90;;;;;;5051942;28;20053;-70
2022/01/30 03:51:16;;;;;;;29.75;7.28;;;5.70;99.90;;;;;;5052298;28;20056;-69
2022/01/30 03:53:44;;;;;;;29.63;7.40;;;5.70;99.90;;;;;;5052264;28;20448;-71
2022/01/30 03:56:11;;;;;;;30.27;7.47;;;5.70;99.90;;;;;;5052314;28;20053;-70
2022/01/30 03:58:38;;;;;;;40.20;8.48;;;5.70;99.90;;;;;;5052131;28;20053;-70
2022/01/30 04:01:05;;;;;;;30.55;7.43;;;5.70;99.90;;;;;;5052555;28;20056;-70
2022/01/30 04:03:33;;;;;;;25.58;6.28;;;5.70;99.90;;;;;;5051410;28;20053;-69
2022/01/30 04:06:01;;;;;;;23.08;6.22;;;5.60;99.90;;;;;;5052385;28;20405;-70
2022/01/30 04:08:29;;;;;;;29.27;6.93;;;5.60;99.90;;;;;;5051607;28;20053;-70
2022/01/30 04:10:56;;;;;;;37.17;8.75;;;5.60;99.90;;;;;;5051389;28;20052;-70
2022/01/30 04:13:23;;;;;;;36.03;8.05;;;5.60;99.90;;;;;;5052272;28;20087;-70
2022/01/30 04:15:50;;;;;;;34.15;9.18;;;5.60;99.90;;;;;;5052191;28;20562;-70
2022/01/30 04:18:17;;;;;;;43.55;8.40;;;5.50;99.90;;;;;;5051379;28;20496;-70
2022/01/30 04:20:45;;;;;;;45.72;9.48;;;5.50;99.90;;;;;;5051779;28;20049;-70
2022/01/30 04:23:13;;;;;;;33.88;8.80;;;5.50;99.90;;;;;;5052205;28;20045;-70
2022/01/30 04:25:40;;;;;;;49.13;10.80;;;5.40;99.90;;;;;;5051401;28;20057;-71
2022/01/30 04:28:08;;;;;;;36.95;9.23;;;5.40;99.90;;;;;;5051594;28;20053;-69
2022/01/30 04:30:35;;;;;;;40.67;9.48;;;5.40;99.90;;;;;;5051898;28;20451;-69
2022/01/30 04:33:02;;;;;;;29.10;8.88;;;5.40;99.90;;;;;;5051589;28;20053;-70
2022/01/30 04:35:30;;;;;;;37.40;9.40;;;5.40;99.90;;;;;;5051168;28;20102;-69
2022/01/30 04:38:06;;;;;;;39.55;9.68;;;5.40;99.90;;;;;;5051022;28;20520;-69
2022/01/30 04:52:20;;;;;;;41.58;8.25;;;5.40;99.90;;;;;;5010692;28;20056;-70
2022/01/30 04:58:03;;;;;;;37.13;9.18;;;5.50;99.90;;;;;;5048235;28;20049;-70
2022/01/30 05:00:48;;;;;;;32.00;7.63;;;5.50;99.90;;;;;;5031019;28;20107;-70
2022/01/30 05:03:36;;;;;;;36.15;9.55;;;5.50;99.90;;;;;;5031942;28;20405;-69
2022/01/30 05:06:06;;;;;;;45.13;9.43;;;5.50;99.90;;;;;;5038797;28;20080;-69
2022/01/30 05:08:34;;;;;;;31.52;8.57;;;5.50;99.90;;;;;;5054383;28;20469;-69
2022/01/30 05:11:05;;;;;;;32.78;9.07;;;5.60;99.90;;;;;;5055667;28;20057;-69
2022/01/30 05:13:36;;;;;;;40.28;10.75;;;5.60;99.90;;;;;;5056577;28;20080;-69
2022/01/30 05:16:03;;;;;;;37.45;10.13;;;5.60;99.90;;;;;;5055527;28;20580;-68
2022/01/30 05:18:31;;;;;;;37.65;8.52;;;5.60;99.90;;;;;;5055269;28;20044;-69
2022/01/30 05:20:59;;;;;;;46.72;9.77;;;5.60;99.90;;;;;;5054993;28;20106;-69
2022/01/30 05:23:26;;;;;;;36.53;8.05;;;5.50;99.90;;;;;;5055726;28;20040;-70
2022/01/30 05:25:53;;;;;;;34.40;9.38;;;5.50;99.90;;;;;;5056533;28;20049;-67
2022/01/30 05:28:22;;;;;;;43.05;8.35;;;5.50;99.90;;;;;;5060364;28;20562;-69
2022/01/30 05:30:51;;;;;;;36.58;8.82;;;5.40;99.90;;;;;;5060073;28;20081;-68
2022/01/30 05:33:18;;;;;;;40.35;8.88;;;5.30;99.90;;;;;;5061311;28;20098;-69
2022/01/30 05:35:46;;;;;;;38.70;9.73;;;5.30;99.90;;;;;;5061286;28;20118;-68
2022/01/30 05:38:13;;;;;;;37.28;9.52;;;5.30;99.90;;;;;;5060143;28;20143;-69
2022/01/30 05:40:41;;;;;;;36.92;9.43;;;5.30;99.90;;;;;;5063246;28;20057;-70
2022/01/30 05:43:08;;;;;;;49.17;10.10;;;5.30;99.90;;;;;;5058584;28;20049;-69
2022/01/30 05:45:38;;;;;;;48.88;9.40;;;5.40;99.90;;;;;;5056553;28;20092;-69
2022/01/30 05:48:11;;;;;;;46.40;9.68;;;5.40;99.90;;;;;;5057460;28;20049;-69
2022/01/30 05:50:38;;;;;;;38.38;9.75;;;5.40;99.90;;;;;;5056495;28;20048;-69
2022/01/30 05:53:05;;;;;;;36.45;9.77;;;5.50;99.90;;;;;;5055080;28;20048;-69
2022/01/30 05:55:32;;;;;;;46.72;9.48;;;5.60;99.90;;;;;;5054295;28;20053;-68
2022/01/30 05:57:59;;;;;;;38.25;8.10;;;5.60;99.90;;;;;;5054891;28;20444;-69
2022/01/30 06:00:27;;;;;;;34.10;8.77;;;5.60;99.90;;;;;;5054740;28;20080;-70
2022/01/30 06:02:54;;;;;;;40.28;9.63;;;5.60;99.90;;;;;;5053734;28;20098;-70
2022/01/30 06:05:25;;;;;;;38.60;9.27;;;5.40;99.90;;;;;;5054239;28;20056;-69
2022/01/30 06:07:54;;;;;;;35.40;9.20;;;5.40;99.90;;;;;;5054137;28;20136;-69
2022/01/30 06:10:23;;;;;;;23.40;8.63;;;5.30;99.90;;;;;;5053935;28;20071;-70
2022/01/30 06:12:50;;;;;;;39.08;9.10;;;5.30;99.90;;;;;;5055016;28;20045;-68
2022/01/30 06:15:18;;;;;;;36.90;11.20;;;5.30;99.90;;;;;;5054084;28;20053;-69
2022/01/30 06:17:46;;;;;;;38.17;9.63;;;5.30;99.90;;;;;;5070131;28;20136;-70
2022/01/30 06:20:13;;;;;;;41.33;10.00;;;5.40;99.90;;;;;;5053093;28;20488;-70
2022/01/30 06:22:41;;;;;;;42.92;9.38;;;5.40;99.90;;;;;;5054315;28;20044;-70
2022/01/30 06:25:09;;;;;;;38.58;9.63;;;5.40;99.90;;;;;;5053710;28;20082;-70
2022/01/30 06:27:36;;;;;;;33.60;9.57;;;5.40;99.90;;;;;;5054331;28;20116;-70
2022/01/30 06:30:04;;;;;;;49.35;9.50;;;5.40;99.90;;;;;;5054045;28;20563;-71
2022/01/30 06:32:31;;;;;;;41.90;9.07;;;5.30;99.90;;;;;;5053200;28;20048;-70
2022/01/30 06:34:58;;;;;;;38.40;7.97;;;5.30;99.90;;;;;;5054118;28;20061;-71
2022/01/30 06:37:25;;;;;;;51.28;9.02;;;5.30;99.90;;;;;;5053598;28;20505;-70
2022/01/30 06:39:53;;;;;;;39.15;8.68;;;5.30;99.90;;;;;;5053298;28;20060;-69
2022/01/30 06:42:20;;;;;;;36.10;9.20;;;5.30;99.90;;;;;;5053878;28;20053;-70
2022/01/30 06:44:47;;;;;;;27.92;7.50;;;5.30;99.90;;;;;;5053333;28;20052;-71
2022/01/30 06:47:14;;;;;;;38.85;9.20;;;5.40;99.90;;;;;;5054690;28;20093;-69
2022/01/30 06:49:41;;;;;;;35.80;9.45;;;5.40;99.90;;;;;;5054146;28;20068;-69
2022/01/30 06:52:09;;;;;;;40.00;8.75;;;5.50;99.90;;;;;;5053025;28;20056;-69
2022/01/30 06:54:38;;;;;;;29.30;7.95;;;5.50;99.90;;;;;;5053809;28;20551;-70
2022/01/30 06:57:07;;;;;;;33.25;8.85;;;5.50;99.90;;;;;;5053744;28;20048;-69
2022/01/30 06:59:34;;;;;;;29.15;8.15;;;5.60;99.90;;;;;;5052697;28;20053;-70
2022/01/30 07:02:01;;;;;;;28.83;9.50;;;5.60;99.90;;;;;;5053530;28;20102;-70
2022/01/30 07:04:28;;;;;;;37.58;9.95;;;5.60;99.90;;;;;;5053299;28;20041;-69
2022/01/30 07:06:55;;;;;;;36.08;10.52;;;5.60;99.90;;;;;;5052804;28;20053;-69
2022/01/30 07:09:22;;;;;;;37.58;10.40;;;5.60;99.90;;;;;;5053481;28;20106;-70
2022/01/30 07:11:48;;;;;;;42.33;9.52;;;5.60;99.90;;;;;;5069968;28;20107;-70
2022/01/30 07:14:17;;;;;;;37.55;8.35;;;5.50;99.90;;;;;;5061914;28;20100;-70
2022/01/30 07:16:43;;;;;;;32.08;8.75;;;5.50;99.90;;;;;;5032996;28;20107;-70
2022/01/30 07:19:10;;;;;;;39.28;7.95;;;5.60;99.90;;;;;;5033618;28;20049;-70
2022/01/30 07:21:37;;;;;;;30.40;8.73;;;5.60;99.90;;;;;;5032587;28;20057;-69
2022/01/30 07:24:05;;;;;;;33.60;8.50;;;5.70;99.90;;;;;;5033078;28;20108;-70
2022/01/30 07:26:32;;;;;;;30.27;8.32;;;5.50;99.90;;;;;;5032919;28;20516;-69
2022/01/30 07:28:59;;;;;;;26.08;8.88;;;5.50;99.90;;;;;;5039486;28;20044;-70
2022/01/30 07:31:28;;;;;;;25.90;7.93;;;5.50;99.90;;;;;;5045056;28;20497;-69
2022/01/30 07:33:54;;;;;;;27.73;7.10;;;5.50;99.90;;;;;;5052318;28;20094;-69
2022/01/30 07:36:22;;;;;;;30.85;7.10;;;5.50;99.90;;;;;;5051440;28;20049;-69
2022/01/30 07:38:49;;;;;;;32.92;7.07;;;5.50;99.90;;;;;;5052835;28;20145;-69
2022/01/30 07:41:16;;;;;;;23.38;6.20;;;5.60;99.90;;;;;;5050779;28;20133;-68
2022/01/30 07:43:43;;;;;;;33.15;8.50;;;5.60;99.90;;;;;;5051565;28;20072;-68
2022/01/30 07:46:10;;;;;;;33.67;7.65;;;5.60;99.90;;;;;;5050849;28;20045;-68
2022/01/30 07:48:38;;;;;;;31.05;7.72;;;5.60;99.90;;;;;;5050687;28;20521;-68
2022/01/30 07:51:05;;;;;;;31.55;7.97;;;5.60;99.90;;;;;;5051422;28;20451;-69
2022/01/30 07:53:32;;;;;;;27.30;7.05;;;5.70;99.90;;;;;;5050267;28;20049;-69
2022/01/30 07:55:59;;;;;;;37.30;7.22;;;5.60;99.90;;;;;;5050605;28;20056;-69
2022/01/30 07:58:26;;;;;;;22.35;5.75;;;5.70;99.90;;;;;;5050990;28;20100;-69
2022/01/30 08:00:53;;;;;;;32.08;6.47;;;5.70;99.90;;;;;;5051120;28;20052;-69
2022/01/30 08:03:20;;;;;;;28.02;7.15;;;5.70;99.90;;;;;;5050461;28;20072;-68
2022/01/30 08:05:48;;;;;;;27.88;6.97;;;5.70;99.90;;;;;;5051223;28;20106;-69
2022/01/30 08:08:15;;;;;;;39.33;8.50;;;5.70;99.90;;;;;;5050840;28;20049;-69
2022/01/30 08:10:42;;;;;;;37.42;8.23;;;5.70;99.90;;;;;;5048220;28;20114;-69
2022/01/30 08:13:09;;;;;;;31.40;7.85;;;5.70;99.90;;;;;;5052405;28;20107;-69
2022/01/30 08:15:35;;;;;;;36.47;8.55;;;5.70;99.90;;;;;;5051206;28;20059;-69
2022/01/30 08:18:02;;;;;;;31.38;8.43;;;5.70;99.90;;;;;;5050251;28;20551;-69
2022/01/30 08:20:29;;;;;;;34.53;8.52;;;5.70;99.90;;;;;;5050729;28;20064;-68
2022/01/30 08:22:59;;;;;;;38.90;9.27;;;5.70;99.90;;;;;;5051100;28;20090;-69
2022/01/30 08:25:26;;;;;;;29.55;8.60;;;5.80;99.90;;;;;;5051275;28;20515;-69
2022/01/30 08:27:54;;;;;;;39.85;9.23;;;5.80;99.90;;;;;;5050585;28;20053;-69
2022/01/30 08:30:21;;;;;;;36.55;8.40;;;5.90;99.90;;;;;;5047759;28;20459;-69
2022/01/30 08:32:50;;;;;;;32.42;8.18;;;5.90;99.90;;;;;;5050693;28;20049;-69
2022/01/30 08:35:18;;;;;;;37.35;8.82;;;5.90;99.90;;;;;;5051048;28;20045;-69
2022/01/30 08:37:46;;;;;;;39.92;9.15;;;5.90;99.90;;;;;;5049999;28;20053;-69
2022/01/30 08:40:17;;;;;;;38.08;8.65;;;6.20;99.90;;;;;;5050621;28;20401;-69
2022/01/30 08:42:44;;;;;;;37.10;7.82;;;6.80;99.90;;;;;;5050271;28;20049;-69
2022/01/30 08:45:13;;;;;;;27.77;8.52;;;7.20;99.90;;;;;;5050008;28;20052;-70
2022/01/30 08:47:40;;;;;;;34.22;7.50;;;7.30;99.90;;;;;;5050347;28;20053;-69
2022/01/30 08:50:08;;;;;;;25.38;7.75;;;7.30;99.90;;;;;;5051709;28;20053;-69
2022/01/30 08:52:35;;;;;;;28.20;7.20;;;7.10;99.90;;;;;;5050265;28;20049;-68
2022/01/30 08:55:03;;;;;;;25.63;7.47;;;7.00;99.90;;;;;;5048178;28;20041;-69
2022/01/30 08:57:31;;;;;;;24.52;7.22;;;6.80;99.90;;;;;;5050813;28;20084;-70
2022/01/30 08:59:58;;;;;;;25.45;8.80;;;6.70;99.90;;;;;;5050183;28;20053;-69
2022/01/30 09:02:26;;;;;;;28.42;7.68;;;6.60;99.90;;;;;;5050551;28;20397;-69
2022/01/30 09:04:53;;;;;;;39.97;8.35;;;6.70;99.90;;;;;;5050727;28;20040;-69
2022/01/30 09:07:20;;;;;;;31.45;9.02;;;7.40;99.90;;;;;;5050240;28;20049;-69
2022/01/30 09:09:47;;;;;;;36.97;8.18;;;8.00;99.90;;;;;;5051874;28;20098;-68
2022/01/30 09:12:14;;;;;;;38.72;8.05;;;8.60;99.90;;;;;;5049265;28;20053;-68
2022/01/30 09:14:43;;;;;;;33.17;8.45;;;8.90;99.90;;;;;;5050178;28;20130;-69
2022/01/30 09:17:13;;;;;;;26.10;7.78;;;8.90;99.90;;;;;;5050344;28;20085;-68
2022/01/30 09:19:41;;;;;;;27.92;7.88;;;8.60;99.90;;;;;;5050870;28;20060;-69
2022/01/30 09:22:10;;;;;;;33.60;7.47;;;8.40;99.90;;;;;;5051598;28;20057;-70
2022/01/30 09:24:37;;;;;;;29.48;7.18;;;8.40;99.90;;;;;;5050038;28;20052;-70
2022/01/30 09:27:05;;;;;;;27.80;7.10;;;8.90;99.90;;;;;;5051065;28;20061;-71
2022/01/30 09:29:33;;;;;;;25.15;6.45;;;9.80;99.90;;;;;;5050472;28;20174;-70
2022/01/30 09:32:01;;;;;;;26.33;6.90;;;10.50;99.90;;;;;;5050195;28;20048;-70
2022/01/30 09:34:29;;;;;;;17.88;5.53;;;11.30;99.90;;;;;;5049807;28;20082;-69
2022/01/30 09:36:56;;;;;;;19.20;6.07;;;11.80;99.90;;;;;;5049953;28;20497;-70
2022/01/30 09:39:23;;;;;;;19.98;6.13;;;12.40;97.60;;;;;;5062551;28;20440;-69
2022/01/30 09:41:52;;;;;;;33.05;6.28;;;12.50;94.20;;;;;;5049567;28;20546;-69
2022/01/30 09:44:20;;;;;;;23.85;6.75;;;13.00;96.90;;;;;;5049974;28;20558;-70
2022/01/30 09:46:49;;;;;;;19.60;6.55;;;13.20;93.30;;;;;;5050159;28;20045;-70
2022/01/30 09:49:21;;;;;;;28.35;6.15;;;12.70;92.60;;;;;;5049284;28;20485;-71
2022/01/30 09:51:48;;;;;;;22.17;5.90;;;12.80;95.20;;;;;;5048276;28;20103;-70
2022/01/30 09:54:15;;;;;;;28.95;7.47;;;13.30;94.00;;;;;;5050685;28;20508;-71
2022/01/30 09:56:42;;;;;;;26.40;6.72;;;13.50;92.90;;;;;;5053496;28;20488;-70
2022/01/30 09:59:09;;;;;;;26.60;7.20;;;13.30;92.90;;;;;;5053870;28;20056;-70
2022/01/30 10:01:38;;;;;;;24.58;7.43;;;12.90;93.80;;;;;;5052737;28;20106;-69
2022/01/30 10:04:06;;;;;;;23.05;6.90;;;12.30;94.90;;;;;;5052345;28;20408;-69
2022/01/30 10:06:51;;;;;;;27.55;6.85;;;12.60;95.50;;;;;;5052969;28;20052;-69
2022/01/30 10:09:25;;;;;;;26.58;7.25;;;13.50;92.90;;;;;;5053507;28;20124;-70
2022/01/30 10:12:01;;;;;;;25.77;7.10;;;14.00;92.80;;;;;;5053280;28;20048;-70
2022/01/30 10:14:28;;;;;;;20.42;6.78;;;14.50;92.80;;;;;;5068383;28;20041;-70
2022/01/30 10:16:55;;;;;;;26.40;6.55;;;14.70;90.90;;;;;;5052676;28;20107;-70
2022/01/30 10:19:24;;;;;;;25.00;7.55;;;15.00;88.60;;;;;;5050645;28;20047;-70
2022/01/30 10:22:05;;;;;;;23.27;7.15;;;14.60;88.20;;;;;;5052952;28;20098;-70
2022/01/30 10:24:38;;;;;;;24.80;6.95;;;13.00;89.40;;;;;;5051135;28;20041;-68
2022/01/30 10:27:19;;;;;;;28.40;8.30;;;12.20;93.00;;;;;;5050977;28;20052;-69
2022/01/30 10:29:53;;;;;;;24.35;6.90;;;11.40;95.70;;;;;;5050493;28;20048;-69
2022/01/30 10:32:20;;;;;;;25.90;7.05;;;10.40;99.00;;;;;;5052958;28;20071;-69
2022/01/30 10:34:57;;;;;;;26.10;6.68;;;10.10;99.90;;;;;;5052641;28;20083;-69
2022/01/30 10:37:25;;;;;;;33.75;8.90;;;9.90;99.90;;;;;;5049650;28;20060;-68
2022/01/30 10:40:06;;;;;;;25.38;7.57;;;9.80;99.90;;;;;;5052767;28;20049;-69
2022/01/30 10:42:37;;;;;;;29.95;7.20;;;10.40;99.90;;;;;;5068419;28;20049;-70
2022/01/30 10:45:05;;;;;;;21.23;5.50;;;11.80;99.90;;;;;;5049632;28;20053;-69
2022/01/30 10:47:32;;;;;;;26.98;7.05;;;13.00;96.20;;;;;;5052609;28;20060;-69
2022/01/30 10:50:00;;;;;;;20.58;6.50;;;13.90;91.40;;;;;;5052561;28;20073;-70
2022/01/30 10:52:29;;;;;;;22.02;7.13;;;14.30;90.90;;;;;;5052101;28;20514;-70
2022/01/30 10:55:05;;;;;;;21.92;6.03;;;14.90;89.30;;;;;;5052724;28;20087;-70
2022/01/30 10:57:40;;;;;;;26.45;6.80;;;15.30;85.90;;;;;;5051052;28;20457;-70
2022/01/30 11:00:08;;;;;;;21.10;7.68;;;15.90;83.10;;;;;;5049990;28;20131;-70
2022/01/30 11:02:38;;;;;;;31.27;7.03;;;15.80;80.50;;;;;;5051957;28;20049;-70
2022/01/30 11:05:10;;;;;;;21.05;5.95;;;16.00;77.70;;;;;;5048939;28;20059;-70
2022/01/30 11:07:39;;;;;;;24.33;6.13;;;16.20;78.00;;;;;;5052296;28;20051;-70
2022/01/30 11:10:12;;;;;;;21.83;5.82;;;16.50;76.90;;;;;;5050452;28;20071;-71
2022/01/30 11:12:46;;;;;;;24.85;6.95;;;16.80;72.60;;;;;;5052072;28;20133;-71
2022/01/30 11:15:22;;;;;;;24.50;7.43;;;16.70;70.00;;;;;;5052371;28;20408;-71
2022/01/30 11:17:50;;;;;;;22.63;7.15;;;16.90;71.90;;;;;;5066722;28;20210;-70
2022/01/30 11:20:18;;;;;;;21.27;6.43;;;15.90;75.00;;;;;;5052928;28;20045;-70
2022/01/30 11:22:48;;;;;;;23.25;7.13;;;15.50;75.70;;;;;;5049856;28;20048;-70
2022/01/30 11:25:16;;;;;;;25.70;7.57;;;15.10;76.90;;;;;;5051444;28;20045;-70
2022/01/30 11:27:46;;;;;;;22.85;6.78;;;15.00;76.80;;;;;;5051027;28;20145;-69
2022/01/30 11:30:15;;;;;;;;;;;15.40;78.60;;;;;;5052531;28;20060;-69
2022/01/30 11:32:42;;;;;;;24.52;7.38;;;15.90;75.50;;;;;;5051707;28;20007;-70
2022/01/30 11:35:10;;;;;;;20.88;6.70;;;16.20;75.40;;;;;;5051130;28;20045;-69
2022/01/30 11:37:38;;;;;;;24.50;5.90;;;16.40;74.90;;;;;;5051550;28;20102;-69
2022/01/30 11:40:14;;;;;;;20.52;6.28;;;16.60;72.10;;;;;;5049244;28;20060;-70
2022/01/30 11:42:44;;;;;;;26.98;6.22;;;17.10;71.10;;;;;;5051999;28;20080;-71
2022/01/30 11:45:15;;;;;;;26.80;7.07;;;17.00;72.40;;;;;;5051723;28;20045;-69
2022/01/30 11:47:48;;;;;;;19.40;5.88;;;17.40;70.40;;;;;;5050671;28;20079;-70
2022/01/30 11:50:17;;;;;;;27.27;6.95;;;17.30;72.30;;;;;;5051452;28;20140;-70
2022/01/30 11:53:04;;;;;;;19.77;6.32;;;17.40;71.70;;;;;;5049488;28;20076;-70
2022/01/30 11:55:56;;;;;;;23.80;7.13;;;17.80;70.20;;;;;;5046549;28;20110;-69
2022/01/30 11:58:34;;;;;;;24.50;7.05;;;17.60;71.10;;;;;;5051652;28;20136;-69
2022/01/30 12:01:02;;;;;;;22.02;6.75;;;17.20;70.80;;;;;;5051176;28;20123;-71
2022/01/30 12:03:32;;;;;;;21.20;6.90;;;17.60;70.60;;;;;;5051069;28;20374;-69
2022/01/30 12:06:33;;;;;;;27.20;6.85;;;17.30;70.10;;;;;;5050966;28;20087;-69
2022/01/30 12:09:01;;;;;;;27.40;7.18;;;17.90;69.80;;;;;;5046096;28;20520;-70
2022/01/30 12:11:58;;;;;;;25.35;6.70;;;18.00;69.50;;;;;;5050114;28;20045;-70
2022/01/30 12:14:59;;;;;;;26.95;7.65;;;18.70;70.10;;;;;;5040415;28;20447;-71
2022/01/30 12:17:50;;;;;;;25.08;7.13;;;18.00;68.60;;;;;;5066630;28;20041;-70
2022/01/30 12:20:18;;;;;;;25.23;6.65;;;16.70;69.50;;;;;;5048987;28;20061;-70
2022/01/30 12:22:45;;;;;;;25.15;6.35;;;15.80;73.30;;;;;;5050719;28;20053;-70
2022/01/30 12:25:36;;;;;;;22.80;6.15;;;14.80;73.40;;;;;;5050250;28;20045;-70
2022/01/30 12:28:06;;;;;;;22.77;5.95;;;13.70;77.40;;;;;;5049515;28;20562;-70
2022/01/30 12:30:46;;;;;;;19.58;6.03;;;12.90;78.00;;;;;;5050309;28;20056;-70
2022/01/30 12:33:33;;;;;;;24.13;6.57;;;12.30;80.40;;;;;;5049819;28;20083;-69
2022/01/30 12:36:01;;;;;;;29.77;6.60;;;11.80;82.30;;;;;;5065236;28;20416;-69
2022/01/30 12:38:33;;;;;;;24.13;6.25;;;12.20;85.00;;;;;;5049995;28;20060;-69
2022/01/30 12:40:59;;;;;;;18.73;5.90;;;13.10;82.20;;;;;;5050420;28;20048;-70
2022/01/30 12:43:30;;;;;;;21.98;6.50;;;14.10;80.50;;;;;;5050204;28;20049;-70
2022/01/30 12:46:08;;;;;;;26.80;6.95;;;14.60;77.80;;;;;;5049000;28;20049;-70
2022/01/30 12:48:35;;;;;;;23.67;6.40;;;15.30;78.10;;;;;;5065600;28;20558;-70
2022/01/30 12:51:06;;;;;;;18.55;5.88;;;16.00;73.40;;;;;;5049613;28;20142;-70
2022/01/30 12:53:34;;;;;;;16.35;5.47;;;16.20;70.20;;;;;;5051012;28;20052;-70
2022/01/30 12:56:01;;;;;;;14.57;5.18;;;16.60;69.10;;;;;;5050703;28;20453;-70
2022/01/30 12:58:34;;;;;;;20.02;5.75;;;16.80;67.90;;;;;;5049999;28;20084;-70
2022/01/30 13:01:09;;;;;;;17.10;5.22;;;17.20;64.70;;;;;;5050283;28;20045;-70
2022/01/30 13:03:36;;;;;;;21.67;4.60;;;16.90;64.50;;;;;;5050901;28;20049;-69
2022/01/30 13:06:03;;;;;;;19.90;5.68;;;16.00;65.20;;;;;;5049643;28;20049;-70
2022/01/30 13:08:51;;;;;;;18.42;5.45;;;15.60;66.90;;;;;;5050721;28;20049;-70
2022/01/30 13:11:20;;;;;;;16.10;5.38;;;15.70;67.50;;;;;;5048872;28;20091;-69
2022/01/30 13:13:58;;;;;;;25.25;6.25;;;16.20;69.30;;;;;;5047442;28;20045;-70
2022/01/30 13:16:40;;;;;;;18.48;5.65;;;15.70;67.40;;;;;;5050467;28;20072;-69
2022/01/30 13:19:09;;;;;;;16.20;5.80;;;16.20;66.50;;;;;;5046838;28;20068;-70
2022/01/30 13:21:38;;;;;;;19.30;5.68;;;16.60;68.40;;;;;;5050444;28;20053;-70
2022/01/30 13:24:07;;;;;;;21.70;6.47;;;16.80;68.40;;;;;;5064497;28;20053;-70
2022/01/30 13:26:38;;;;;;;18.40;5.47;;;16.80;66.10;;;;;;5049137;28;20049;-70
2022/01/30 13:29:11;;;;;;;20.80;6.00;;;16.20;67.30;;;;;;5052798;28;20049;-69
2022/01/30 13:31:38;;;;;;;18.45;5.13;;;15.90;66.80;;;;;;5054332;28;20102;-69